Terminal Aerodrome Forecast
Issued by NWS Wichita, KS

Home | Current Version | Previous Version | Text Only | Print | Product List | Glossary On
Versions: 1 2 3 4 5 6 7 8 9 10 11 12 13 14 15 16 17 18 19 20 21 22
000
FTUS43 KICT 201700
TAFICT
TAF
KICT 201720Z 2018/2118 05008KT P6SM SKC
     FM210000 06005KT P6SM SKC
     FM211200 09005KT 5SM BR SCT015
     FM211400 10005KT 5SM BR BKN015=

USA.gov is the U.S. government's official web portal to all federal, state and local government web resources and services.